sensor_id;sensor_type;location;lat;lon;timestamp;P1;durP1;ratioP1;P2;durP2;ratioP2
33074;SDS011;19433;51.292;6.868;2023-06-26T00:01:06;5.03;;;4.63;;
33074;SDS011;19433;51.292;6.868;2023-06-26T00:03:31;5.73;;;5.13;;
33074;SDS011;19433;51.292;6.868;2023-06-26T00:05:57;5.50;;;5.10;;
33074;SDS011;19433;51.292;6.868;2023-06-26T00:08:25;6.00;;;5.47;;
33074;SDS011;19433;51.292;6.868;2023-06-26T00:10:51;6.30;;;5.80;;
33074;SDS011;19433;51.292;6.868;2023-06-26T00:13:16;5.63;;;5.13;;
33074;SDS011;19433;51.292;6.868;2023-06-26T00:15:41;5.33;;;4.93;;
33074;SDS011;19433;51.292;6.868;2023-06-26T00:18:07;5.47;;;4.97;;
33074;SDS011;19433;51.292;6.868;2023-06-26T00:20:32;5.87;;;5.40;;
33074;SDS011;19433;51.292;6.868;2023-06-26T00:22:59;5.50;;;5.00;;
33074;SDS011;19433;51.292;6.868;2023-06-26T00:25:24;5.93;;;5.53;;
33074;SDS011;19433;51.292;6.868;2023-06-26T00:27:50;5.00;;;4.60;;
33074;SDS011;19433;51.292;6.868;2023-06-26T00:30:15;5.03;;;4.63;;
33074;SDS011;19433;51.292;6.868;2023-06-26T00:32:41;5.50;;;5.10;;
33074;SDS011;19433;51.292;6.868;2023-06-26T00:35:06;5.10;;;4.70;;
33074;SDS011;19433;51.292;6.868;2023-06-26T00:37:31;5.47;;;5.07;;
33074;SDS011;19433;51.292;6.868;2023-06-26T00:39:57;5.93;;;5.20;;
33074;SDS011;19433;51.292;6.868;2023-06-26T00:42:22;5.90;;;5.40;;
33074;SDS011;19433;51.292;6.868;2023-06-26T00:44:47;5.90;;;5.40;;
33074;SDS011;19433;51.292;6.868;2023-06-26T00:47:13;5.57;;;5.17;;
33074;SDS011;19433;51.292;6.868;2023-06-26T00:49:40;6.50;;;5.90;;
33074;SDS011;19433;51.292;6.868;2023-06-26T00:52:06;4.53;;;4.13;;
33074;SDS011;19433;51.292;6.868;2023-06-26T00:54:31;5.50;;;5.03;;
33074;SDS011;19433;51.292;6.868;2023-06-26T00:56:57;5.60;;;5.10;;
33074;SDS011;19433;51.292;6.868;2023-06-26T00:59:22;5.87;;;5.37;;
33074;SDS011;19433;51.292;6.868;2023-06-26T01:01:48;5.87;;;5.37;;
33074;SDS011;19433;51.292;6.868;2023-06-26T01:04:13;5.67;;;5.20;;
33074;SDS011;19433;51.292;6.868;2023-06-26T01:06:43;5.10;;;4.70;;
33074;SDS011;19433;51.292;6.868;2023-06-26T01:09:14;6.03;;;5.53;;
33074;SDS011;19433;51.292;6.868;2023-06-26T01:11:41;6.30;;;5.70;;
33074;SDS011;19433;51.292;6.868;2023-06-26T01:14:06;5.80;;;5.30;;
33074;SDS011;19433;51.292;6.868;2023-06-26T01:16:32;5.33;;;4.93;;
33074;SDS011;19433;51.292;6.868;2023-06-26T01:18:58;5.53;;;4.97;;
33074;SDS011;19433;51.292;6.868;2023-06-26T01:21:24;5.10;;;4.70;;
33074;SDS011;19433;51.292;6.868;2023-06-26T01:24:07;5.43;;;5.03;;
33074;SDS011;19433;51.292;6.868;2023-06-26T01:26:45;6.10;;;5.57;;
33074;SDS011;19433;51.292;6.868;2023-06-26T01:29:12;5.27;;;4.77;;
33074;SDS011;19433;51.292;6.868;2023-06-26T01:31:41;5.30;;;4.90;;
33074;SDS011;19433;51.292;6.868;2023-06-26T01:34:09;5.40;;;4.90;;
33074;SDS011;19433;51.292;6.868;2023-06-26T01:36:34;4.87;;;4.47;;
33074;SDS011;19433;51.292;6.868;2023-06-26T01:39:02;5.27;;;4.77;;
33074;SDS011;19433;51.292;6.868;2023-06-26T01:41:27;5.50;;;5.00;;
33074;SDS011;19433;51.292;6.868;2023-06-26T01:43:57;11.47;;;6.17;;
33074;SDS011;19433;51.292;6.868;2023-06-26T01:46:25;4.93;;;4.63;;
33074;SDS011;19433;51.292;6.868;2023-06-26T01:49:02;5.90;;;5.47;;
33074;SDS011;19433;51.292;6.868;2023-06-26T01:51:35;4.97;;;4.57;;
33074;SDS011;19433;51.292;6.868;2023-06-26T01:54:06;4.83;;;4.43;;
33074;SDS011;19433;51.292;6.868;2023-06-26T01:56:36;5.10;;;4.70;;
33074;SDS011;19433;51.292;6.868;2023-06-26T01:59:05;4.70;;;4.30;;
33074;SDS011;19433;51.292;6.868;2023-06-26T02:01:32;5.30;;;4.90;;
33074;SDS011;19433;51.292;6.868;2023-06-26T02:03:58;5.57;;;5.07;;
33074;SDS011;19433;51.292;6.868;2023-06-26T02:06:24;5.77;;;5.27;;
33074;SDS011;19433;51.292;6.868;2023-06-26T02:08:49;5.73;;;5.23;;
33074;SDS011;19433;51.292;6.868;2023-06-26T02:11:15;5.73;;;5.23;;
33074;SDS011;19433;51.292;6.868;2023-06-26T02:13:40;6.07;;;5.57;;
33074;SDS011;19433;51.292;6.868;2023-06-26T02:16:05;5.37;;;4.87;;
33074;SDS011;19433;51.292;6.868;2023-06-26T02:18:31;5.30;;;4.90;;
33074;SDS011;19433;51.292;6.868;2023-06-26T02:20:56;5.40;;;5.00;;
33074;SDS011;19433;51.292;6.868;2023-06-26T02:23:21;5.90;;;5.30;;
33074;SDS011;19433;51.292;6.868;2023-06-26T02:25:47;5.50;;;5.10;;
33074;SDS011;19433;51.292;6.868;2023-06-26T02:28:12;5.57;;;5.07;;
33074;SDS011;19433;51.292;6.868;2023-06-26T02:30:37;6.03;;;5.53;;
33074;SDS011;19433;51.292;6.868;2023-06-26T02:33:02;5.47;;;5.07;;
33074;SDS011;19433;51.292;6.868;2023-06-26T02:35:28;5.60;;;5.17;;
33074;SDS011;19433;51.292;6.868;2023-06-26T02:37:53;5.00;;;4.70;;
33074;SDS011;19433;51.292;6.868;2023-06-26T02:40:18;5.63;;;5.20;;
33074;SDS011;19433;51.292;6.868;2023-06-26T02:42:43;5.37;;;4.90;;
33074;SDS011;19433;51.292;6.868;2023-06-26T02:45:09;8.33;;;6.57;;
33074;SDS011;19433;51.292;6.868;2023-06-26T02:47:34;6.03;;;5.57;;
33074;SDS011;19433;51.292;6.868;2023-06-26T02:50:00;5.30;;;4.87;;
33074;SDS011;19433;51.292;6.868;2023-06-26T02:52:25;5.50;;;5.00;;
33074;SDS011;19433;51.292;6.868;2023-06-26T02:54:50;6.20;;;5.60;;
33074;SDS011;19433;51.292;6.868;2023-06-26T02:57:16;5.60;;;5.10;;
33074;SDS011;19433;51.292;6.868;2023-06-26T02:59:42;6.43;;;5.83;;
33074;SDS011;19433;51.292;6.868;2023-06-26T03:02:07;5.47;;;5.07;;
33074;SDS011;19433;51.292;6.868;2023-06-26T03:04:32;6.20;;;5.70;;
33074;SDS011;19433;51.292;6.868;2023-06-26T03:07:01;5.87;;;5.37;;
33074;SDS011;19433;51.292;6.868;2023-06-26T03:09:27;6.50;;;6.00;;
33074;SDS011;19433;51.292;6.868;2023-06-26T03:11:52;6.33;;;5.80;;
33074;SDS011;19433;51.292;6.868;2023-06-26T03:14:18;5.53;;;5.13;;
33074;SDS011;19433;51.292;6.868;2023-06-26T03:16:43;5.70;;;5.30;;
33074;SDS011;19433;51.292;6.868;2023-06-26T03:19:08;7.50;;;6.80;;
33074;SDS011;19433;51.292;6.868;2023-06-26T03:21:34;5.37;;;4.93;;
33074;SDS011;19433;51.292;6.868;2023-06-26T03:23:59;6.00;;;5.50;;
33074;SDS011;19433;51.292;6.868;2023-06-26T03:26:24;5.20;;;4.80;;
33074;SDS011;19433;51.292;6.868;2023-06-26T03:28:52;5.37;;;4.97;;
33074;SDS011;19433;51.292;6.868;2023-06-26T03:31:18;6.17;;;5.67;;
33074;SDS011;19433;51.292;6.868;2023-06-26T03:33:44;6.07;;;5.50;;
33074;SDS011;19433;51.292;6.868;2023-06-26T03:36:09;5.80;;;5.27;;
33074;SDS011;19433;51.292;6.868;2023-06-26T03:38:35;5.10;;;4.70;;
33074;SDS011;19433;51.292;6.868;2023-06-26T03:41:00;5.77;;;5.27;;
33074;SDS011;19433;51.292;6.868;2023-06-26T03:43:25;5.93;;;5.53;;
33074;SDS011;19433;51.292;6.868;2023-06-26T03:45:50;5.43;;;4.93;;
33074;SDS011;19433;51.292;6.868;2023-06-26T03:48:16;6.53;;;6.03;;
33074;SDS011;19433;51.292;6.868;2023-06-26T03:50:41;5.60;;;5.10;;
33074;SDS011;19433;51.292;6.868;2023-06-26T03:53:06;6.00;;;5.50;;
33074;SDS011;19433;51.292;6.868;2023-06-26T03:55:32;5.83;;;5.33;;
33074;SDS011;19433;51.292;6.868;2023-06-26T03:57:57;6.90;;;5.47;;
33074;SDS011;19433;51.292;6.868;2023-06-26T04:00:22;5.77;;;5.27;;
33074;SDS011;19433;51.292;6.868;2023-06-26T04:02:48;8.20;;;6.07;;
33074;SDS011;19433;51.292;6.868;2023-06-26T04:05:13;5.73;;;5.07;;
33074;SDS011;19433;51.292;6.868;2023-06-26T04:07:39;5.63;;;5.23;;
33074;SDS011;19433;51.292;6.868;2023-06-26T04:10:05;6.03;;;5.53;;
33074;SDS011;19433;51.292;6.868;2023-06-26T04:12:31;6.23;;;5.73;;
33074;SDS011;19433;51.292;6.868;2023-06-26T04:14:56;6.40;;;5.87;;
33074;SDS011;19433;51.292;6.868;2023-06-26T04:17:22;6.30;;;5.70;;
33074;SDS011;19433;51.292;6.868;2023-06-26T04:19:47;7.70;;;6.20;;
33074;SDS011;19433;51.292;6.868;2023-06-26T04:22:12;5.70;;;5.20;;
33074;SDS011;19433;51.292;6.868;2023-06-26T04:24:37;5.80;;;5.40;;
33074;SDS011;19433;51.292;6.868;2023-06-26T04:27:03;6.60;;;6.10;;
33074;SDS011;19433;51.292;6.868;2023-06-26T04:29:28;5.37;;;4.90;;
33074;SDS011;19433;51.292;6.868;2023-06-26T04:31:54;6.53;;;5.93;;
33074;SDS011;19433;51.292;6.868;2023-06-26T04:34:23;5.30;;;4.90;;
33074;SDS011;19433;51.292;6.868;2023-06-26T04:36:49;5.67;;;5.17;;
33074;SDS011;19433;51.292;6.868;2023-06-26T04:39:15;5.83;;;5.20;;
33074;SDS011;19433;51.292;6.868;2023-06-26T04:41:41;5.63;;;5.23;;
33074;SDS011;19433;51.292;6.868;2023-06-26T04:44:06;5.53;;;5.07;;
33074;SDS011;19433;51.292;6.868;2023-06-26T04:46:32;6.30;;;5.70;;
33074;SDS011;19433;51.292;6.868;2023-06-26T04:48:57;5.40;;;4.90;;
33074;SDS011;19433;51.292;6.868;2023-06-26T04:51:23;6.03;;;5.47;;
33074;SDS011;19433;51.292;6.868;2023-06-26T04:53:49;5.10;;;4.60;;
33074;SDS011;19433;51.292;6.868;2023-06-26T04:56:15;4.73;;;4.33;;
33074;SDS011;19433;51.292;6.868;2023-06-26T04:58:40;4.83;;;4.43;;
33074;SDS011;19433;51.292;6.868;2023-06-26T05:01:05;5.87;;;5.37;;
33074;SDS011;19433;51.292;6.868;2023-06-26T05:03:31;4.93;;;4.50;;
33074;SDS011;19433;51.292;6.868;2023-06-26T05:05:57;5.33;;;4.80;;
33074;SDS011;19433;51.292;6.868;2023-06-26T05:08:23;5.50;;;4.90;;
33074;SDS011;19433;51.292;6.868;2023-06-26T05:10:49;5.13;;;4.53;;
33074;SDS011;19433;51.292;6.868;2023-06-26T05:13:14;5.07;;;4.67;;
33074;SDS011;19433;51.292;6.868;2023-06-26T05:15:42;4.93;;;4.53;;
33074;SDS011;19433;51.292;6.868;2023-06-26T05:18:08;4.43;;;4.10;;
33074;SDS011;19433;51.292;6.868;2023-06-26T05:20:34;6.23;;;4.40;;
33074;SDS011;19433;51.292;6.868;2023-06-26T05:23:01;4.53;;;4.07;;
33074;SDS011;19433;51.292;6.868;2023-06-26T05:25:28;4.60;;;4.20;;
33074;SDS011;19433;51.292;6.868;2023-06-26T05:27:55;4.10;;;3.80;;
33074;SDS011;19433;51.292;6.868;2023-06-26T05:30:21;5.40;;;4.90;;
33074;SDS011;19433;51.292;6.868;2023-06-26T05:32:47;4.53;;;4.13;;
33074;SDS011;19433;51.292;6.868;2023-06-26T05:35:14;4.90;;;4.33;;
33074;SDS011;19433;51.292;6.868;2023-06-26T05:37:41;4.20;;;3.80;;
33074;SDS011;19433;51.292;6.868;2023-06-26T05:40:07;5.10;;;3.50;;
33074;SDS011;19433;51.292;6.868;2023-06-26T05:42:34;4.97;;;3.97;;
33074;SDS011;19433;51.292;6.868;2023-06-26T05:44:59;4.10;;;3.80;;
33074;SDS011;19433;51.292;6.868;2023-06-26T05:47:24;4.67;;;4.27;;
33074;SDS011;19433;51.292;6.868;2023-06-26T05:49:50;4.60;;;4.20;;
33074;SDS011;19433;51.292;6.868;2023-06-26T05:52:15;4.80;;;4.40;;
33074;SDS011;19433;51.292;6.868;2023-06-26T05:54:41;4.50;;;4.10;;
33074;SDS011;19433;51.292;6.868;2023-06-26T05:57:06;4.27;;;3.97;;
33074;SDS011;19433;51.292;6.868;2023-06-26T05:59:32;5.03;;;3.43;;
33074;SDS011;19433;51.292;6.868;2023-06-26T06:01:58;5.50;;;4.40;;
33074;SDS011;19433;51.292;6.868;2023-06-26T06:04:23;4.47;;;3.90;;
33074;SDS011;19433;51.292;6.868;2023-06-26T06:06:48;4.67;;;3.80;;
33074;SDS011;19433;51.292;6.868;2023-06-26T06:09:14;6.17;;;4.20;;
33074;SDS011;19433;51.292;6.868;2023-06-26T06:11:40;4.50;;;4.10;;
33074;SDS011;19433;51.292;6.868;2023-06-26T06:14:06;4.87;;;4.10;;
33074;SDS011;19433;51.292;6.868;2023-06-26T06:16:31;4.33;;;3.80;;
33074;SDS011;19433;51.292;6.868;2023-06-26T06:18:56;5.27;;;3.90;;
33074;SDS011;19433;51.292;6.868;2023-06-26T06:21:22;3.93;;;3.63;;
33074;SDS011;19433;51.292;6.868;2023-06-26T06:23:47;4.90;;;4.40;;
33074;SDS011;19433;51.292;6.868;2023-06-26T06:26:12;6.23;;;3.93;;
33074;SDS011;19433;51.292;6.868;2023-06-26T06:28:38;4.10;;;3.70;;
33074;SDS011;19433;51.292;6.868;2023-06-26T06:31:04;3.80;;;3.40;;
33074;SDS011;19433;51.292;6.868;2023-06-26T06:33:29;3.80;;;3.50;;
33074;SDS011;19433;51.292;6.868;2023-06-26T06:35:56;4.30;;;3.80;;
33074;SDS011;19433;51.292;6.868;2023-06-26T06:38:21;5.53;;;4.27;;
33074;SDS011;19433;51.292;6.868;2023-06-26T06:40:47;4.13;;;3.83;;
33074;SDS011;19433;51.292;6.868;2023-06-26T06:43:12;4.53;;;3.43;;
33074;SDS011;19433;51.292;6.868;2023-06-26T06:45:37;5.50;;;4.70;;
33074;SDS011;19433;51.292;6.868;2023-06-26T06:48:03;6.07;;;4.70;;
33074;SDS011;19433;51.292;6.868;2023-06-26T06:50:29;6.50;;;4.50;;
33074;SDS011;19433;51.292;6.868;2023-06-26T06:52:54;5.60;;;4.90;;
33074;SDS011;19433;51.292;6.868;2023-06-26T06:55:19;4.20;;;3.80;;
33074;SDS011;19433;51.292;6.868;2023-06-26T06:57:45;6.23;;;4.07;;
33074;SDS011;19433;51.292;6.868;2023-06-26T07:00:11;8.63;;;4.23;;
33074;SDS011;19433;51.292;6.868;2023-06-26T07:02:39;5.70;;;3.57;;
33074;SDS011;19433;51.292;6.868;2023-06-26T07:05:06;3.97;;;3.67;;
33074;SDS011;19433;51.292;6.868;2023-06-26T07:07:33;4.10;;;3.80;;
33074;SDS011;19433;51.292;6.868;2023-06-26T07:09:59;4.60;;;4.20;;
33074;SDS011;19433;51.292;6.868;2023-06-26T07:12:26;5.90;;;4.60;;
33074;SDS011;19433;51.292;6.868;2023-06-26T07:14:51;5.23;;;3.80;;
33074;SDS011;19433;51.292;6.868;2023-06-26T07:17:17;4.23;;;3.53;;
33074;SDS011;19433;51.292;6.868;2023-06-26T07:19:42;3.87;;;3.47;;
33074;SDS011;19433;51.292;6.868;2023-06-26T07:22:07;2.87;;;2.67;;
33074;SDS011;19433;51.292;6.868;2023-06-26T07:24:32;4.97;;;3.77;;
33074;SDS011;19433;51.292;6.868;2023-06-26T07:26:58;4.03;;;3.63;;
33074;SDS011;19433;51.292;6.868;2023-06-26T07:29:23;4.70;;;4.23;;
33074;SDS011;19433;51.292;6.868;2023-06-26T07:31:48;3.93;;;3.53;;
33074;SDS011;19433;51.292;6.868;2023-06-26T07:34:14;5.20;;;3.90;;
33074;SDS011;19433;51.292;6.868;2023-06-26T07:36:39;5.57;;;4.47;;
33074;SDS011;19433;51.292;6.868;2023-06-26T07:39:04;5.57;;;4.43;;
33074;SDS011;19433;51.292;6.868;2023-06-26T07:41:29;7.80;;;4.53;;
33074;SDS011;19433;51.292;6.868;2023-06-26T07:43:56;5.43;;;4.27;;
33074;SDS011;19433;51.292;6.868;2023-06-26T07:46:22;4.10;;;3.70;;
33074;SDS011;19433;51.292;6.868;2023-06-26T07:48:48;6.37;;;3.20;;
33074;SDS011;19433;51.292;6.868;2023-06-26T07:51:13;4.13;;;3.73;;
33074;SDS011;19433;51.292;6.868;2023-06-26T07:53:38;4.80;;;4.33;;
33074;SDS011;19433;51.292;6.868;2023-06-26T07:56:04;3.90;;;3.27;;
33074;SDS011;19433;51.292;6.868;2023-06-26T07:58:29;6.10;;;4.30;;
33074;SDS011;19433;51.292;6.868;2023-06-26T08:00:54;4.93;;;3.73;;
33074;SDS011;19433;51.292;6.868;2023-06-26T08:03:20;5.33;;;3.73;;
33074;SDS011;19433;51.292;6.868;2023-06-26T08:05:46;7.63;;;4.70;;
33074;SDS011;19433;51.292;6.868;2023-06-26T08:08:11;5.83;;;4.80;;
33074;SDS011;19433;51.292;6.868;2023-06-26T08:10:36;8.67;;;5.60;;
33074;SDS011;19433;51.292;6.868;2023-06-26T08:13:02;5.90;;;5.40;;
33074;SDS011;19433;51.292;6.868;2023-06-26T08:15:27;4.83;;;4.27;;
33074;SDS011;19433;51.292;6.868;2023-06-26T08:17:52;5.10;;;4.67;;
33074;SDS011;19433;51.292;6.868;2023-06-26T08:20:18;6.60;;;4.53;;
33074;SDS011;19433;51.292;6.868;2023-06-26T08:22:44;4.83;;;4.33;;
33074;SDS011;19433;51.292;6.868;2023-06-26T08:25:09;4.63;;;4.07;;
33074;SDS011;19433;51.292;6.868;2023-06-26T08:27:36;4.47;;;4.07;;
33074;SDS011;19433;51.292;6.868;2023-06-26T08:30:01;4.33;;;3.93;;
33074;SDS011;19433;51.292;6.868;2023-06-26T08:32:26;4.77;;;3.87;;
33074;SDS011;19433;51.292;6.868;2023-06-26T08:34:52;4.07;;;3.67;;
33074;SDS011;19433;51.292;6.868;2023-06-26T08:37:17;3.80;;;3.50;;
33074;SDS011;19433;51.292;6.868;2023-06-26T08:39:42;6.37;;;4.63;;
33074;SDS011;19433;51.292;6.868;2023-06-26T08:42:07;4.40;;;3.67;;
33074;SDS011;19433;51.292;6.868;2023-06-26T08:44:33;4.93;;;4.37;;
33074;SDS011;19433;51.292;6.868;2023-06-26T08:46:59;6.50;;;3.90;;
33074;SDS011;19433;51.292;6.868;2023-06-26T08:49:29;5.83;;;3.70;;
33074;SDS011;19433;51.292;6.868;2023-06-26T08:51:57;5.20;;;3.93;;
33074;SDS011;19433;51.292;6.868;2023-06-26T08:54:28;8.37;;;4.43;;
33074;SDS011;19433;51.292;6.868;2023-06-26T08:56:59;4.23;;;3.33;;
33074;SDS011;19433;51.292;6.868;2023-06-26T08:59:25;5.07;;;3.83;;
33074;SDS011;19433;51.292;6.868;2023-06-26T09:01:50;8.27;;;3.63;;
33074;SDS011;19433;51.292;6.868;2023-06-26T09:04:16;4.63;;;3.73;;
33074;SDS011;19433;51.292;6.868;2023-06-26T09:06:41;3.73;;;3.13;;
33074;SDS011;19433;51.292;6.868;2023-06-26T09:09:07;3.73;;;3.40;;
33074;SDS011;19433;51.292;6.868;2023-06-26T09:11:32;5.00;;;3.50;;
33074;SDS011;19433;51.292;6.868;2023-06-26T09:13:58;4.70;;;3.30;;
33074;SDS011;19433;51.292;6.868;2023-06-26T09:16:25;3.70;;;2.70;;
33074;SDS011;19433;51.292;6.868;2023-06-26T09:18:51;6.97;;;3.37;;
33074;SDS011;19433;51.292;6.868;2023-06-26T09:21:17;4.30;;;3.07;;
33074;SDS011;19433;51.292;6.868;2023-06-26T09:23:43;4.40;;;2.90;;
33074;SDS011;19433;51.292;6.868;2023-06-26T09:26:08;4.93;;;3.00;;
33074;SDS011;19433;51.292;6.868;2023-06-26T09:28:34;5.47;;;3.30;;
33074;SDS011;19433;51.292;6.868;2023-06-26T09:31:01;5.33;;;2.73;;
33074;SDS011;19433;51.292;6.868;2023-06-26T09:33:28;4.90;;;3.53;;
33074;SDS011;19433;51.292;6.868;2023-06-26T09:35:59;3.83;;;2.63;;
33074;SDS011;19433;51.292;6.868;2023-06-26T09:38:24;3.20;;;2.80;;
33074;SDS011;19433;51.292;6.868;2023-06-26T09:40:49;4.53;;;2.80;;
33074;SDS011;19433;51.292;6.868;2023-06-26T09:43:15;6.07;;;2.87;;
33074;SDS011;19433;51.292;6.868;2023-06-26T09:45:40;3.27;;;2.97;;
33074;SDS011;19433;51.292;6.868;2023-06-26T09:48:06;2.90;;;2.60;;
33074;SDS011;19433;51.292;6.868;2023-06-26T09:50:36;3.50;;;2.67;;
33074;SDS011;19433;51.292;6.868;2023-06-26T09:53:12;5.60;;;3.27;;
33074;SDS011;19433;51.292;6.868;2023-06-26T09:55:38;2.93;;;2.33;;
33074;SDS011;19433;51.292;6.868;2023-06-26T09:58:05;4.03;;;2.97;;
33074;SDS011;19433;51.292;6.868;2023-06-26T10:00:31;3.33;;;2.67;;
33074;SDS011;19433;51.292;6.868;2023-06-26T10:02:57;4.80;;;2.80;;
33074;SDS011;19433;51.292;6.868;2023-06-26T10:05:23;5.33;;;2.87;;
33074;SDS011;19433;51.292;6.868;2023-06-26T10:07:48;2.80;;;2.23;;
33074;SDS011;19433;51.292;6.868;2023-06-26T10:10:15;3.23;;;2.40;;
33074;SDS011;19433;51.292;6.868;2023-06-26T10:12:41;4.93;;;2.17;;
33074;SDS011;19433;51.292;6.868;2023-06-26T10:15:08;4.33;;;2.30;;
33074;SDS011;19433;51.292;6.868;2023-06-26T10:17:37;2.47;;;2.37;;
33074;SDS011;19433;51.292;6.868;2023-06-26T10:20:05;3.70;;;2.40;;
33074;SDS011;19433;51.292;6.868;2023-06-26T10:22:37;2.83;;;2.20;;
33074;SDS011;19433;51.292;6.868;2023-06-26T10:25:09;2.60;;;2.40;;
33074;SDS011;19433;51.292;6.868;2023-06-26T10:27:39;4.47;;;1.90;;
33074;SDS011;19433;51.292;6.868;2023-06-26T10:30:16;2.40;;;2.20;;
33074;SDS011;19433;51.292;6.868;2023-06-26T10:32:45;3.53;;;2.67;;
33074;SDS011;19433;51.292;6.868;2023-06-26T10:35:11;3.93;;;2.50;;
33074;SDS011;19433;51.292;6.868;2023-06-26T10:37:40;3.10;;;2.30;;
33074;SDS011;19433;51.292;6.868;2023-06-26T10:40:08;3.47;;;2.10;;
33074;SDS011;19433;51.292;6.868;2023-06-26T10:42:34;2.73;;;1.73;;
33074;SDS011;19433;51.292;6.868;2023-06-26T10:45:10;3.50;;;2.10;;
33074;SDS011;19433;51.292;6.868;2023-06-26T10:47:39;3.07;;;2.13;;
33074;SDS011;19433;51.292;6.868;2023-06-26T10:50:28;1.97;;;1.87;;
33074;SDS011;19433;51.292;6.868;2023-06-26T10:53:08;1.80;;;1.50;;
33074;SDS011;19433;51.292;6.868;2023-06-26T10:55:34;2.00;;;1.67;;
33074;SDS011;19433;51.292;6.868;2023-06-26T10:58:00;2.40;;;1.87;;
33074;SDS011;19433;51.292;6.868;2023-06-26T11:00:27;2.37;;;1.70;;
33074;SDS011;19433;51.292;6.868;2023-06-26T11:02:53;3.80;;;2.27;;
33074;SDS011;19433;51.292;6.868;2023-06-26T11:05:28;2.33;;;1.50;;
33074;SDS011;19433;51.292;6.868;2023-06-26T11:08:10;1.47;;;1.40;;
33074;SDS011;19433;51.292;6.868;2023-06-26T11:10:53;1.60;;;1.43;;
33074;SDS011;19433;51.292;6.868;2023-06-26T11:13:19;2.40;;;1.67;;
33074;SDS011;19433;51.292;6.868;2023-06-26T11:15:46;2.00;;;1.77;;
33074;SDS011;19433;51.292;6.868;2023-06-26T11:18:12;4.77;;;1.83;;
33074;SDS011;19433;51.292;6.868;2023-06-26T11:20:39;7.07;;;1.90;;
33074;SDS011;19433;51.292;6.868;2023-06-26T11:23:04;4.70;;;1.63;;
33074;SDS011;19433;51.292;6.868;2023-06-26T11:25:33;1.47;;;1.37;;
33074;SDS011;19433;51.292;6.868;2023-06-26T11:28:00;1.53;;;1.20;;
33074;SDS011;19433;51.292;6.868;2023-06-26T11:30:25;1.40;;;1.30;;
33074;SDS011;19433;51.292;6.868;2023-06-26T11:32:51;1.77;;;1.67;;
33074;SDS011;19433;51.292;6.868;2023-06-26T11:35:23;3.57;;;1.50;;
33074;SDS011;19433;51.292;6.868;2023-06-26T11:37:55;1.63;;;1.30;;
33074;SDS011;19433;51.292;6.868;2023-06-26T11:40:26;1.20;;;1.10;;
33074;SDS011;19433;51.292;6.868;2023-06-26T11:42:52;1.23;;;1.13;;
33074;SDS011;19433;51.292;6.868;2023-06-26T11:45:19;1.50;;;1.40;;
33074;SDS011;19433;51.292;6.868;2023-06-26T11:47:45;1.10;;;1.00;;
33074;SDS011;19433;51.292;6.868;2023-06-26T11:50:17;1.60;;;1.50;;
33074;SDS011;19433;51.292;6.868;2023-06-26T11:52:43;1.43;;;1.27;;
33074;SDS011;19433;51.292;6.868;2023-06-26T11:55:09;2.83;;;1.23;;
33074;SDS011;19433;51.292;6.868;2023-06-26T11:57:35;1.90;;;1.47;;
33074;SDS011;19433;51.292;6.868;2023-06-26T12:00:11;1.37;;;1.27;;
33074;SDS011;19433;51.292;6.868;2023-06-26T12:02:37;1.37;;;1.27;;
33074;SDS011;19433;51.292;6.868;2023-06-26T12:05:03;1.87;;;1.40;;
33074;SDS011;19433;51.292;6.868;2023-06-26T12:07:29;1.93;;;1.30;;
33074;SDS011;19433;51.292;6.868;2023-06-26T12:09:56;6.03;;;1.60;;
33074;SDS011;19433;51.292;6.868;2023-06-26T12:12:23;1.47;;;1.20;;
33074;SDS011;19433;51.292;6.868;2023-06-26T12:14:51;3.17;;;1.10;;
33074;SDS011;19433;51.292;6.868;2023-06-26T12:17:16;1.37;;;1.00;;
33074;SDS011;19433;51.292;6.868;2023-06-26T12:19:43;2.07;;;1.23;;
33074;SDS011;19433;51.292;6.868;2023-06-26T12:22:10;2.63;;;1.37;;
33074;SDS011;19433;51.292;6.868;2023-06-26T12:24:39;1.17;;;1.07;;
33074;SDS011;19433;51.292;6.868;2023-06-26T12:27:15;5.17;;;1.90;;
33074;SDS011;19433;51.292;6.868;2023-06-26T12:29:46;1.90;;;1.00;;
33074;SDS011;19433;51.292;6.868;2023-06-26T12:32:17;3.47;;;1.47;;
33074;SDS011;19433;51.292;6.868;2023-06-26T12:34:46;1.67;;;1.30;;
33074;SDS011;19433;51.292;6.868;2023-06-26T12:37:13;1.50;;;1.10;;
33074;SDS011;19433;51.292;6.868;2023-06-26T12:39:46;1.40;;;1.30;;
33074;SDS011;19433;51.292;6.868;2023-06-26T12:42:15;1.03;;;1.00;;
33074;SDS011;19433;51.292;6.868;2023-06-26T12:44:42;0.90;;;0.90;;
33074;SDS011;19433;51.292;6.868;2023-06-26T12:47:07;1.67;;;1.00;;
33074;SDS011;19433;51.292;6.868;2023-06-26T12:49:37;1.30;;;0.97;;
33074;SDS011;19433;51.292;6.868;2023-06-26T12:52:04;1.20;;;0.90;;
33074;SDS011;19433;51.292;6.868;2023-06-26T12:54:31;2.00;;;0.97;;
33074;SDS011;19433;51.292;6.868;2023-06-26T12:56:56;1.60;;;0.90;;
33074;SDS011;19433;51.292;6.868;2023-06-26T12:59:22;1.73;;;0.90;;
33074;SDS011;19433;51.292;6.868;2023-06-26T13:01:48;1.30;;;1.20;;
33074;SDS011;19433;51.292;6.868;2023-06-26T13:04:14;1.07;;;1.00;;
33074;SDS011;19433;51.292;6.868;2023-06-26T13:06:39;1.20;;;1.10;;
33074;SDS011;19433;51.292;6.868;2023-06-26T13:09:04;1.40;;;1.10;;
33074;SDS011;19433;51.292;6.868;2023-06-26T13:11:30;1.10;;;1.00;;
33074;SDS011;19433;51.292;6.868;2023-06-26T13:13:57;1.37;;;1.17;;
33074;SDS011;19433;51.292;6.868;2023-06-26T13:16:22;1.13;;;0.80;;
33074;SDS011;19433;51.292;6.868;2023-06-26T13:18:47;0.83;;;0.83;;
33074;SDS011;19433;51.292;6.868;2023-06-26T13:21:13;1.47;;;1.23;;
33074;SDS011;19433;51.292;6.868;2023-06-26T13:23:39;1.30;;;1.03;;
33074;SDS011;19433;51.292;6.868;2023-06-26T13:26:05;2.00;;;0.80;;
33074;SDS011;19433;51.292;6.868;2023-06-26T13:28:31;1.00;;;0.90;;
33074;SDS011;19433;51.292;6.868;2023-06-26T13:30:56;1.43;;;0.80;;
33074;SDS011;19433;51.292;6.868;2023-06-26T13:33:21;1.80;;;0.87;;
33074;SDS011;19433;51.292;6.868;2023-06-26T13:35:51;3.00;;;1.10;;
33074;SDS011;19433;51.292;6.868;2023-06-26T13:38:17;1.70;;;1.00;;
33074;SDS011;19433;51.292;6.868;2023-06-26T13:40:44;3.17;;;0.80;;
33074;SDS011;19433;51.292;6.868;2023-06-26T13:43:09;3.70;;;1.03;;
33074;SDS011;19433;51.292;6.868;2023-06-26T13:45:34;2.00;;;1.13;;
33074;SDS011;19433;51.292;6.868;2023-06-26T13:47:59;2.70;;;1.37;;
33074;SDS011;19433;51.292;6.868;2023-06-26T13:50:25;0.80;;;0.80;;
33074;SDS011;19433;51.292;6.868;2023-06-26T13:52:50;1.27;;;0.90;;
33074;SDS011;19433;51.292;6.868;2023-06-26T13:55:16;2.07;;;1.20;;
33074;SDS011;19433;51.292;6.868;2023-06-26T13:57:42;1.00;;;0.60;;
33074;SDS011;19433;51.292;6.868;2023-06-26T14:00:08;0.93;;;0.93;;
33074;SDS011;19433;51.292;6.868;2023-06-26T14:02:34;1.43;;;1.03;;
33074;SDS011;19433;51.292;6.868;2023-06-26T14:05:00;1.50;;;0.90;;
33074;SDS011;19433;51.292;6.868;2023-06-26T14:07:25;1.30;;;1.10;;
33074;SDS011;19433;51.292;6.868;2023-06-26T14:09:50;1.57;;;1.00;;
33074;SDS011;19433;51.292;6.868;2023-06-26T14:12:16;3.43;;;1.07;;
33074;SDS011;19433;51.292;6.868;2023-06-26T14:14:41;1.23;;;0.73;;
33074;SDS011;19433;51.292;6.868;2023-06-26T14:17:07;1.10;;;1.00;;
33074;SDS011;19433;51.292;6.868;2023-06-26T14:19:34;1.13;;;1.00;;
33074;SDS011;19433;51.292;6.868;2023-06-26T14:21:59;1.27;;;1.10;;
33074;SDS011;19433;51.292;6.868;2023-06-26T14:24:24;0.77;;;0.77;;
33074;SDS011;19433;51.292;6.868;2023-06-26T14:26:50;1.87;;;0.97;;
33074;SDS011;19433;51.292;6.868;2023-06-26T14:29:15;1.10;;;0.90;;
33074;SDS011;19433;51.292;6.868;2023-06-26T14:31:42;0.80;;;0.80;;
33074;SDS011;19433;51.292;6.868;2023-06-26T14:34:07;1.30;;;0.90;;
33074;SDS011;19433;51.292;6.868;2023-06-26T14:36:33;1.10;;;1.00;;
33074;SDS011;19433;51.292;6.868;2023-06-26T14:38:58;2.23;;;1.30;;
33074;SDS011;19433;51.292;6.868;2023-06-26T14:41:24;1.30;;;1.10;;
33074;SDS011;19433;51.292;6.868;2023-06-26T14:43:50;1.13;;;0.80;;